Terminal Aerodrome Forecast
Issued by NWS

Home | Current Version | Previous Version | Text Only | Print | Product List | Glossary On
Versions: 1 2 3 4 5 6 7 8 9 10 11 12 13 14 15 16 17 18
000
FTUS46 KSEW 251732
TAFBFI
TAF
KBFI 251732Z 2518/2618 18008KT P6SM BKN040 BKN150
     FM260100 18010KT P6SM -RA OVC040
     FM261200 20010KT P6SM -SHRA BKN030
     FM261700 20010KT P6SM VCSH BKN040=

USA.gov is the U.S. government's official web portal to all federal, state and local government web resources and services.